Time;durP1;ratioP1;P1;durP2;ratioP2;P2;SDS_P1;SDS_P2;PMS_P1;PMS_P2;Temp;Humidity;BMP_temperature;BMP_pressure;BME280_temperature;BME280_humidity;BME280_pressure;Samples;Min_cycle;Max_cycle;Signal;HPM_P1;HPM_P2
2022/03/29 00:01:19;;;;;;;17.08;7.32;;;;;;;5.59;62.64;97196.59;5025634;28;20045;-65
2022/03/29 00:03:46;;;;;;;12.73;7.13;;;;;;;5.62;62.66;97194.50;5020626;28;20049;-65
2022/03/29 00:06:13;;;;;;;14.93;7.93;;;;;;;5.64;62.38;97195.13;5024529;28;20071;-66
2022/03/29 00:08:39;;;;;;;14.43;7.72;;;;;;;5.59;62.80;97193.91;5025072;28;20037;-65
2022/03/29 00:11:06;;;;;;;16.33;7.57;;;;;;;5.54;63.30;97182.19;5024733;28;20041;-66
2022/03/29 00:13:32;;;;;;;15.05;8.27;;;;;;;5.62;62.66;97181.91;5024726;28;20042;-66
2022/03/29 00:15:59;;;;;;;15.13;8.23;;;;;;;5.73;62.54;97172.25;5025344;28;20057;-65
2022/03/29 00:18:25;;;;;;;14.52;7.65;;;;;;;5.86;61.69;97165.88;5024303;28;20120;-66
2022/03/29 00:20:52;;;;;;;13.23;7.90;;;;;;;5.89;61.42;97165.44;5024650;28;20056;-65
2022/03/29 00:23:19;;;;;;;14.38;8.20;;;;;;;5.83;61.64;97156.41;5023966;28;20508;-66
2022/03/29 00:25:46;;;;;;;14.13;7.32;;;;;;;5.93;61.59;97155.09;5024266;28;20049;-66
2022/03/29 00:28:14;;;;;;;16.95;8.15;;;;;;;6.00;61.13;97150.41;5024861;28;20501;-66
2022/03/29 00:30:40;;;;;;;15.68;8.13;;;;;;;6.23;60.40;97138.94;5025210;28;20049;-66
2022/03/29 00:33:07;;;;;;;13.13;7.97;;;;;;;6.38;59.77;97143.91;5024417;28;20045;-66
2022/03/29 00:35:34;;;;;;;14.10;7.80;;;;;;;6.38;59.73;97133.16;5024304;28;20092;-66
2022/03/29 00:38:00;;;;;;;14.95;8.00;;;;;;;6.41;59.53;97142.63;5024853;28;20535;-66
2022/03/29 00:40:27;;;;;;;16.13;7.60;;;;;;;6.43;59.51;97140.53;5024495;28;20037;-65
2022/03/29 00:42:54;;;;;;;14.88;8.52;;;;;;;6.37;59.76;97130.69;5024392;28;20119;-66
2022/03/29 00:45:20;;;;;;;18.58;7.13;;;;;;;6.37;59.83;97131.50;5024219;28;20049;-66
2022/03/29 00:47:47;;;;;;;22.83;8.05;;;;;;;6.38;59.81;97125.06;5024110;28;20083;-65
2022/03/29 00:50:14;;;;;;;16.15;7.80;;;;;;;6.29;60.20;97123.78;5029208;28;20708;-66
2022/03/29 00:52:41;;;;;;;13.35;8.88;;;;;;;6.26;60.29;97121.53;5027542;28;20393;-66
2022/03/29 00:55:12;;;;;;;20.02;8.43;;;;;;;6.19;60.81;97118.16;5034218;28;20037;-65
2022/03/29 00:57:39;;;;;;;13.15;7.50;;;;;;;6.26;60.67;97115.38;5027522;28;20491;-67
2022/03/29 01:00:07;;;;;;;13.65;7.78;;;;;;;6.32;60.34;97115.25;5028617;28;20505;-66
2022/03/29 01:02:35;;;;;;;14.75;7.90;;;;;;;6.32;60.26;97104.50;5027851;28;20053;-66
2022/03/29 01:05:01;;;;;;;14.52;8.30;;;;;;;6.31;60.56;97105.56;5028026;28;20045;-66
2022/03/29 01:07:28;;;;;;;13.30;7.85;;;;;;;6.26;60.71;97105.41;5027539;28;20037;-66
2022/03/29 01:09:56;;;;;;;16.15;8.27;;;;;;;6.23;60.77;97092.44;5028866;28;20060;-66
2022/03/29 01:12:24;;;;;;;16.95;8.38;;;;;;;6.25;60.88;97095.72;5027363;28;20042;-67
2022/03/29 01:14:52;;;;;;;15.93;7.38;;;;;;;6.30;60.97;97092.34;5028957;28;20045;-65
2022/03/29 01:17:38;;;;;;;15.27;7.80;;;;;;;6.33;60.66;97086.47;5027085;28;20060;-66
2022/03/29 01:20:24;;;;;;;14.95;7.90;;;;;;;6.47;60.19;97077.16;5028249;28;20501;-66
2022/03/29 01:22:52;;;;;;;14.00;7.40;;;;;;;6.46;60.45;97072.00;5026600;28;20052;-66
2022/03/29 01:25:22;;;;;;;13.75;7.72;;;;;;;6.37;60.75;97074.22;5027711;28;20046;-66
2022/03/29 01:27:51;;;;;;;13.40;8.20;;;;;;;6.22;61.28;97071.97;5027392;28;20710;-66
2022/03/29 01:30:19;;;;;;;15.45;9.18;;;;;;;6.16;61.52;97067.53;5028695;28;20048;-67
2022/03/29 01:32:47;;;;;;;14.20;7.57;;;;;;;6.15;61.57;97063.19;5026832;28;20045;-67
2022/03/29 01:35:17;;;;;;;13.77;7.65;;;;;;;6.08;61.79;97066.00;5028087;28;20045;-66
2022/03/29 01:37:43;;;;;;;14.32;7.50;;;;;;;6.01;62.10;97057.97;5035760;28;20037;-67
2022/03/29 01:40:13;;;;;;;15.05;8.63;;;;;;;5.99;62.21;97057.41;5017512;28;20050;-66
2022/03/29 01:42:45;;;;;;;17.13;9.07;;;;;;;6.05;62.31;97051.13;5026103;28;20038;-67
2022/03/29 01:45:12;;;;;;;16.02;8.48;;;;;;;6.11;61.95;97046.69;5027197;28;20063;-65
2022/03/29 01:47:39;;;;;;;14.35;8.65;;;;;;;6.26;61.53;97046.25;5044991;28;20049;-66
2022/03/29 01:50:07;;;;;;;13.35;8.10;;;;;;;6.33;61.17;97038.91;5028124;28;20056;-67
2022/03/29 01:52:41;;;;;;;13.98;8.27;;;;;;;6.34;61.33;97037.03;5025597;28;20045;-66
2022/03/29 01:55:09;;;;;;;15.95;7.88;;;;;;;6.42;61.00;97033.19;5023839;28;20029;-67
2022/03/29 01:57:36;;;;;;;16.85;7.45;;;;;;;6.47;60.72;97033.28;5024693;28;20512;-67
2022/03/29 02:02:50;;;;;;;16.83;7.78;;;;;;;6.34;61.16;97024.41;5026131;28;20762;-66
2022/03/29 02:05:18;;;;;;;17.38;7.70;;;;;;;6.27;61.65;97025.56;5027800;28;20065;-67
2022/03/29 02:07:45;;;;;;;16.95;7.47;;;;;;;6.26;61.69;97019.38;5026258;28;20531;-66
2022/03/29 02:10:19;;;;;;;15.00;9.07;;;;;;;6.33;61.34;97020.09;5027542;28;20511;-65
2022/03/29 02:12:47;;;;;;;18.80;7.88;;;;;;;6.40;61.14;97021.81;5027057;28;20045;-66
2022/03/29 02:15:13;;;;;;;12.90;8.07;;;;;;;6.42;60.90;97022.44;5026722;28;20447;-66
2022/03/29 02:17:42;;;;;;;14.85;7.78;;;;;;;6.47;60.79;97020.69;5026303;28;20052;-66
2022/03/29 02:20:09;;;;;;;13.82;7.97;;;;;;;6.44;60.88;97018.44;5026612;28;20052;-67
2022/03/29 02:22:36;;;;;;;17.42;8.98;;;;;;;6.41;61.06;97010.03;5027657;28;20037;-67
2022/03/29 02:25:03;;;;;;;17.50;8.70;;;;;;;6.34;61.17;97007.47;5026692;28;20073;-65
2022/03/29 02:27:29;;;;;;;13.18;7.45;;;;;;;6.37;61.11;97004.28;5026715;28;20052;-67
2022/03/29 02:29:56;;;;;;;14.95;7.93;;;;;;;6.45;60.87;96995.06;5025449;28;20107;-66
2022/03/29 02:32:22;;;;;;;15.68;8.10;;;;;;;6.48;60.75;96997.25;5026781;28;20045;-66
2022/03/29 02:34:49;;;;;;;15.73;8.57;;;;;;;6.51;60.80;97002.19;5026889;28;20045;-67
2022/03/29 02:37:16;;;;;;;19.10;8.68;;;;;;;6.55;60.44;96995.28;5025867;28;20513;-67
2022/03/29 02:39:43;;;;;;;15.82;8.02;;;;;;;6.53;60.76;96993.88;5027330;28;20049;-66
2022/03/29 02:42:09;;;;;;;16.70;8.35;;;;;;;6.36;61.30;96991.91;5026118;28;20034;-67
2022/03/29 02:44:36;;;;;;;13.63;7.85;;;;;;;6.26;61.82;96992.47;5024883;28;20037;-66
2022/03/29 02:47:03;;;;;;;18.48;8.32;;;;;;;6.11;62.61;96990.25;5024917;28;20045;-65
2022/03/29 02:49:29;;;;;;;17.70;8.13;;;;;;;5.94;63.20;96990.91;5026440;28;20052;-67
2022/03/29 02:51:57;;;;;;;17.33;8.57;;;;;;;5.81;63.61;96991.94;5033241;28;20041;-66
2022/03/29 02:54:23;;;;;;;14.75;7.78;;;;;;;5.72;63.89;96985.28;5027983;28;20694;-67
2022/03/29 02:56:50;;;;;;;15.18;8.38;;;;;;;5.64;64.42;96982.91;5026242;28;20064;-67
2022/03/29 02:59:17;;;;;;;15.45;8.73;;;;;;;5.67;64.39;96977.88;5026089;28;20049;-66
2022/03/29 03:01:43;;;;;;;15.60;8.18;;;;;;;5.65;64.47;96976.47;5026044;28;20041;-66
2022/03/29 03:04:13;;;;;;;15.98;8.77;;;;;;;5.66;64.25;96975.44;5027463;28;20564;-67
2022/03/29 03:06:43;;;;;;;13.90;7.60;;;;;;;5.66;64.17;96973.56;5024921;28;20069;-66
2022/03/29 03:09:09;;;;;;;19.55;8.73;;;;;;;5.62;64.51;96967.03;5027282;28;20049;-66
2022/03/29 03:11:36;;;;;;;14.38;8.38;;;;;;;5.61;64.56;96965.38;5024950;28;20679;-66
2022/03/29 03:14:03;;;;;;;14.07;7.82;;;;;;;5.63;64.35;96968.66;5026054;28;20165;-67
2022/03/29 03:16:29;;;;;;;14.48;7.80;;;;;;;5.64;64.30;96964.91;5025804;28;20049;-65
2022/03/29 03:18:56;;;;;;;18.90;8.82;;;;;;;5.63;64.31;96965.97;5026994;28;20731;-67
2022/03/29 03:21:23;;;;;;;17.10;8.55;;;;;;;5.64;64.33;96964.91;5021710;28;20050;-67
2022/03/29 03:23:50;;;;;;;12.88;8.00;;;;;;;5.67;64.29;96966.31;5023190;28;20099;-66
2022/03/29 03:26:16;;;;;;;14.40;7.63;;;;;;;5.69;64.27;96970.44;5026174;28;20057;-67
2022/03/29 03:28:43;;;;;;;16.60;8.43;;;;;;;5.71;63.79;96981.75;5025208;28;20045;-66
2022/03/29 03:31:10;;;;;;;14.82;8.10;;;;;;;5.73;63.58;96973.47;5025043;28;20111;-67
2022/03/29 03:33:36;;;;;;;13.32;7.93;;;;;;;5.72;63.89;96971.84;5026003;28;20049;-66
2022/03/29 03:36:04;;;;;;;20.10;8.13;;;;;;;5.70;63.82;96974.75;5025231;28;20045;-68
2022/03/29 03:38:30;;;;;;;15.40;8.25;;;;;;;5.30;65.47;96970.78;5025600;28;20037;-66
2022/03/29 03:40:57;;;;;;;19.48;8.20;;;;;;;5.23;66.11;96961.97;5025303;28;20060;-67
2022/03/29 03:43:23;;;;;;;17.42;8.75;;;;;;;5.16;66.29;96962.06;5026083;28;20041;-67
2022/03/29 03:45:50;;;;;;;16.30;8.05;;;;;;;5.00;67.46;96951.97;5024693;28;20043;-67
2022/03/29 03:48:17;;;;;;;16.30;8.55;;;;;;;4.80;67.96;96959.22;5025315;28;20612;-67
2022/03/29 03:50:44;;;;;;;14.85;8.25;;;;;;;4.90;67.92;96960.56;5025155;28;20053;-67
2022/03/29 03:53:11;;;;;;;18.52;8.85;;;;;;;4.89;67.48;96959.75;5024988;28;20037;-67
2022/03/29 03:55:38;;;;;;;14.05;7.72;;;;;;;4.75;68.00;96959.06;5024439;28;20164;-68
2022/03/29 03:58:05;;;;;;;17.65;8.52;;;;;;;4.66;68.45;96966.63;5025434;28;20053;-66
2022/03/29 04:00:31;;;;;;;16.08;8.65;;;;;;;4.65;68.32;96956.91;5023660;28;20041;-66
2022/03/29 04:02:59;;;;;;;18.73;8.77;;;;;;;4.62;68.57;96949.34;5026018;28;20041;-66
2022/03/29 04:05:27;;;;;;;18.58;8.88;;;;;;;4.81;67.83;96950.16;5025550;28;20068;-67
2022/03/29 04:07:54;;;;;;;16.45;8.55;;;;;;;4.81;67.56;96952.00;5021557;28;20041;-68
2022/03/29 04:10:20;;;;;;;18.75;8.57;;;;;;;5.01;66.95;96942.91;5025943;28;20112;-66
2022/03/29 04:12:47;;;;;;;17.55;8.15;;;;;;;4.90;67.26;96944.47;5020894;28;20045;-66
2022/03/29 04:15:13;;;;;;;15.27;7.88;;;;;;;4.91;67.51;96940.75;5015711;28;20397;-67
2022/03/29 04:17:40;;;;;;;14.70;8.55;;;;;;;5.00;66.91;96935.88;5019922;28;20448;-68
2022/03/29 04:20:07;;;;;;;16.17;8.63;;;;;;;5.11;66.44;96939.66;5016504;28;20049;-67
2022/03/29 04:22:34;;;;;;;17.65;7.43;;;;;;;4.92;67.27;96935.16;5011257;28;20112;-67
2022/03/29 04:25:01;;;;;;;15.95;8.13;;;;;;;4.85;67.54;96934.41;5010764;28;20578;-67
2022/03/29 04:27:27;;;;;;;21.20;8.45;;;;;;;4.81;67.64;96936.72;5020756;28;20041;-65
2022/03/29 04:29:54;;;;;;;20.05;9.32;;;;;;;4.81;67.52;96938.59;5024158;28;20386;-67
2022/03/29 04:32:20;;;;;;;20.58;8.88;;;;;;;4.75;67.89;96926.91;5016773;28;20033;-68
2022/03/29 04:34:48;;;;;;;13.40;8.77;;;;;;;4.55;68.69;96933.34;5023709;28;20033;-67
2022/03/29 04:37:15;;;;;;;15.48;8.43;;;;;;;4.77;67.71;96924.00;5015096;28;20095;-68
2022/03/29 04:39:41;;;;;;;25.10;8.60;;;;;;;4.92;67.19;96934.31;5021953;28;20459;-67
2022/03/29 04:42:08;;;;;;;13.85;8.05;;;;;;;4.90;67.16;96926.50;5035670;28;20041;-68
2022/03/29 04:44:35;;;;;;;15.02;8.95;;;;;;;4.64;68.38;96931.16;5034731;28;20045;-66
2022/03/29 04:47:03;;;;;;;15.63;8.35;;;;;;;4.52;68.93;96925.72;5025096;28;20045;-66
2022/03/29 04:49:30;;;;;;;17.83;9.38;;;;;;;4.36;69.53;96926.31;5035099;28;20511;-67
2022/03/29 04:51:57;;;;;;;15.85;8.82;;;;;;;4.35;69.55;96925.50;5004591;28;20057;-66
2022/03/29 04:54:24;;;;;;;16.20;8.57;;;;;;;4.36;69.20;96919.09;5016046;28;20057;-67
2022/03/29 04:56:50;;;;;;;16.58;8.13;;;;;;;4.50;68.84;96918.94;5025398;28;20045;-67
2022/03/29 04:59:17;;;;;;;17.80;8.30;;;;;;;4.59;68.85;96919.44;5024236;28;20048;-66
2022/03/29 05:01:44;;;;;;;17.52;8.90;;;;;;;4.49;68.98;96918.13;5023667;28;20046;-66
2022/03/29 05:04:11;;;;;;;14.43;7.63;;;;;;;4.47;69.03;96914.84;5025417;28;20547;-66
2022/03/29 05:06:37;;;;;;;20.25;8.45;;;;;;;4.50;69.00;96917.06;5031202;28;20048;-66
2022/03/29 05:09:04;;;;;;;17.40;8.23;;;;;;;4.60;68.21;96908.50;5022419;28;20395;-69
2022/03/29 05:11:30;;;;;;;16.30;8.45;;;;;;;4.68;68.16;96915.41;5024166;28;20037;-67
2022/03/29 05:13:57;;;;;;;15.02;8.55;;;;;;;4.51;68.65;96916.06;5021872;28;20045;-66
2022/03/29 05:16:23;;;;;;;14.00;8.20;;;;;;;4.40;69.26;96908.75;5024484;28;20131;-69
2022/03/29 05:18:51;;;;;;;16.35;8.80;;;;;;;4.32;69.83;96898.31;5022551;28;20119;-67
2022/03/29 05:21:18;;;;;;;17.75;8.80;;;;;;;4.39;69.40;96901.75;5024727;28;20849;-66
2022/03/29 05:23:44;;;;;;;17.83;8.35;;;;;;;4.41;69.49;96908.53;5026957;28;20547;-66
2022/03/29 05:26:11;;;;;;;20.63;9.45;;;;;;;4.32;70.00;96906.38;5022374;28;20053;-67
2022/03/29 05:28:37;;;;;;;17.00;8.50;;;;;;;4.35;69.64;96901.38;5025044;28;20060;-67
2022/03/29 05:31:05;;;;;;;15.18;8.15;;;;;;;4.47;69.26;96909.50;5020868;28;20075;-66
2022/03/29 05:33:32;;;;;;;14.70;8.75;;;;;;;4.39;70.03;96901.75;5022199;28;20065;-67
2022/03/29 05:35:58;;;;;;;18.30;8.02;;;;;;;4.39;69.95;96902.56;5024642;28;20049;-67
2022/03/29 05:38:25;;;;;;;16.92;7.80;;;;;;;4.38;69.96;96894.72;5033285;28;20131;-67
2022/03/29 05:40:51;;;;;;;17.88;8.60;;;;;;;4.38;69.81;96898.25;5019736;28;20492;-67
2022/03/29 05:43:18;;;;;;;16.30;8.95;;;;;;;4.45;69.62;96900.84;5034143;28;20038;-67
2022/03/29 05:48:52;;;;;;;16.20;8.55;;;;;;;4.48;69.52;96889.69;5030969;28;20055;-68
2022/03/29 05:48:52;;;;;;;16.40;8.68;;;;;;;4.64;69.20;96895.50;5030036;28;20921;-66
2022/03/29 05:51:20;;;;;;;23.10;9.15;;;;;;;4.62;69.49;96894.88;5024878;28;20124;-67
2022/03/29 05:53:48;;;;;;;19.52;8.60;;;;;;;4.64;69.37;96898.16;5027692;28;20044;-67
2022/03/29 05:56:14;;;;;;;22.67;9.07;;;;;;;4.62;69.56;96898.38;5027188;28;20049;-67
2022/03/29 05:58:42;;;;;;;23.15;9.93;;;;;;;4.65;69.67;96900.59;5026418;28;20505;-68
2022/03/29 06:01:09;;;;;;;16.67;8.55;;;;;;;4.78;69.19;96904.16;5026382;28;20664;-65
2022/03/29 06:03:35;;;;;;;22.30;8.85;;;;;;;4.88;68.43;96903.63;5026848;28;20029;-67
2022/03/29 06:06:02;;;;;;;20.88;9.63;;;;;;;5.01;67.97;96900.75;5026868;28;20042;-66
2022/03/29 06:08:29;;;;;;;18.40;9.30;;;;;;;5.16;67.77;96902.22;5026582;28;20060;-65
2022/03/29 06:10:56;;;;;;;17.10;8.90;;;;;;;5.28;67.13;96907.63;5026671;28;20056;-65
2022/03/29 06:13:23;;;;;;;15.70;8.93;;;;;;;5.40;66.76;96905.78;5024875;28;20441;-64
2022/03/29 06:15:50;;;;;;;18.70;8.20;;;;;;;5.49;67.02;96908.16;5022765;28;20042;-66
2022/03/29 06:18:16;;;;;;;21.08;8.88;;;;;;;5.61;66.32;96908.97;5025144;28;20056;-65
2022/03/29 06:20:47;;;;;;;17.00;8.98;;;;;;;5.71;66.31;96908.38;5010394;28;20069;-68
2022/03/29 06:23:13;;;;;;;21.38;9.00;;;;;;;5.78;65.45;96911.78;5023372;28;20092;-66
2022/03/29 06:25:40;;;;;;;19.95;7.60;;;;;;;5.91;65.31;96920.69;5025360;28;20044;-67
2022/03/29 06:28:07;;;;;;;20.05;8.73;;;;;;;5.94;65.16;96925.59;5022994;28;20059;-65
2022/03/29 06:30:34;;;;;;;22.90;9.30;;;;;;;5.96;65.14;96921.63;5023575;28;20049;-67
2022/03/29 06:33:00;;;;;;;23.63;9.15;;;;;;;6.18;64.73;96931.00;5012287;28;20045;-66
2022/03/29 06:35:28;;;;;;;22.65;9.77;;;;;;;6.26;64.72;96927.16;5011338;28;20052;-65
2022/03/29 06:37:58;;;;;;;25.63;8.35;;;;;;;6.26;64.22;96936.03;5026803;28;20045;-66
2022/03/29 06:40:26;;;;;;;24.75;9.45;;;;;;;6.31;64.31;96929.94;5027517;28;20051;-66
2022/03/29 06:42:55;;;;;;;23.92;9.05;;;;;;;6.38;64.58;96927.97;5025848;28;20069;-66
2022/03/29 06:45:22;;;;;;;31.50;9.63;;;;;;;6.43;65.44;96938.81;5027167;28;20714;-66
2022/03/29 06:47:49;;;;;;;16.95;7.80;;;;;;;6.57;63.40;96931.31;5025681;28;20575;-66
2022/03/29 06:50:16;;;;;;;23.02;9.10;;;;;;;6.74;63.06;96938.63;5028471;28;20037;-65
2022/03/29 06:52:45;;;;;;;17.90;8.48;;;;;;;6.90;62.84;96926.31;5038217;28;20040;-66
2022/03/29 06:55:14;;;;;;;22.48;8.38;;;;;;;6.98;61.76;96927.81;5033985;28;20076;-65
2022/03/29 06:57:40;;;;;;;21.75;8.90;;;;;;;7.03;62.09;96926.03;5006571;28;20046;-67
2022/03/29 07:00:09;;;;;;;17.83;9.00;;;;;;;7.20;61.69;96924.44;5021958;28;20048;-66
2022/03/29 07:02:36;;;;;;;21.98;8.80;;;;;;;7.32;61.31;96927.91;5026739;28;20041;-66
2022/03/29 07:05:04;;;;;;;21.75;8.82;;;;;;;7.42;61.53;96932.66;5026010;28;20660;-64
2022/03/29 07:07:31;;;;;;;26.58;9.32;;;;;;;7.42;61.40;96933.44;5029820;28;20057;-64
2022/03/29 07:12:50;;;;;;;25.13;8.77;;;;;;;7.64;60.36;96923.88;5015194;28;20037;-66
2022/03/29 07:15:18;;;;;;;20.70;8.35;;;;;;;7.78;60.14;96927.84;5012862;28;20053;-64
2022/03/29 07:17:45;;;;;;;21.48;7.82;;;;;;;7.93;59.21;96923.78;5024130;28;20103;-64
2022/03/29 07:20:13;;;;;;;18.80;7.82;;;;;;;8.10;58.59;96923.75;5021818;28;20103;-64
2022/03/29 07:22:39;;;;;;;22.67;8.25;;;;;;;8.21;58.08;96919.34;5017904;28;20042;-64
2022/03/29 07:25:06;;;;;;;15.25;8.40;;;;;;;8.29;58.01;96910.81;5026693;28;20116;-63
2022/03/29 07:27:33;;;;;;;18.92;8.07;;;;;;;8.41;58.04;96908.00;5028432;28;20049;-65
2022/03/29 07:30:00;;;;;;;25.80;8.63;;;;;;;8.57;58.12;96909.06;5018570;28;20041;-65
2022/03/29 07:32:27;;;;;;;18.80;9.23;;;;;;;8.65;58.18;96907.00;5040213;28;20045;-64
2022/03/29 07:34:54;;;;;;;17.38;8.32;;;;;;;8.77;58.04;96913.06;5025511;28;20045;-65
2022/03/29 07:37:22;;;;;;;19.85;9.20;;;;;;;8.96;58.64;96908.16;5024650;28;20045;-65
2022/03/29 07:39:53;;;;;;;14.90;8.10;;;;;;;9.21;58.10;96909.50;5025105;28;20517;-66
2022/03/29 07:42:22;;;;;;;16.92;8.77;;;;;;;9.42;56.45;96908.91;5023079;28;20640;-65
2022/03/29 07:44:50;;;;;;;17.10;7.65;;;;;;;9.63;56.08;96902.59;5024332;28;20099;-65
2022/03/29 07:47:19;;;;;;;20.30;9.52;;;;;;;9.86;55.29;96905.22;5028239;28;20041;-66
2022/03/29 07:49:46;;;;;;;20.88;8.82;;;;;;;10.12;54.19;96902.69;5017328;28;20048;-65
2022/03/29 07:52:37;;;;;;;15.48;8.70;;;;;;;10.32;53.15;96907.41;5026727;28;20511;-65
2022/03/29 07:55:06;;;;;;;14.00;8.30;;;;;;;10.35;52.05;96900.66;5022071;28;20049;-66
2022/03/29 07:57:53;;;;;;;16.23;7.47;;;;;;;10.48;51.79;96902.94;5026145;28;20042;-66
2022/03/29 08:00:32;;;;;;;15.65;8.38;;;;;;;10.65;50.92;96896.53;5027160;28;20042;-65
2022/03/29 08:03:03;;;;;;;21.38;8.27;;;;;;;10.90;50.39;96900.41;5011713;28;20046;-63
2022/03/29 08:05:32;;;;;;;16.00;8.27;;;;;;;11.10;49.87;96896.13;5021310;28;20045;-67
2022/03/29 08:07:59;;;;;;;14.35;7.82;;;;;;;11.28;47.26;96900.25;5018819;28;20103;-67
2022/03/29 08:10:28;;;;;;;12.77;7.68;;;;;;;11.39;46.38;96893.72;5020218;28;20056;-67
2022/03/29 08:12:56;;;;;;;12.50;7.38;;;;;;;11.49;45.30;96897.53;5015998;28;20037;-67
2022/03/29 08:15:23;;;;;;;15.23;7.80;;;;;;;11.76;45.49;96893.78;5012043;28;20060;-66
2022/03/29 08:17:50;;;;;;;13.40;6.40;;;;;;;11.97;44.37;96889.97;5019846;28;20412;-67
2022/03/29 08:20:17;;;;;;;11.80;6.88;;;;;;;12.07;45.46;96889.16;5021743;28;20053;-69
2022/03/29 08:22:46;;;;;;;16.92;7.65;;;;;;;12.00;46.23;96898.63;5017365;28;20050;-68
2022/03/29 08:25:15;;;;;;;19.48;8.40;;;;;;;12.09;45.90;96902.47;5018486;28;20773;-68
2022/03/29 08:27:43;;;;;;;14.27;6.82;;;;;;;12.28;44.00;96910.03;5016645;28;20040;-68
2022/03/29 08:30:10;;;;;;;12.95;8.00;;;;;;;12.44;43.94;96903.47;5015196;28;20042;-69
2022/03/29 08:32:37;;;;;;;13.23;7.03;;;;;;;12.85;42.90;96893.56;5009725;28;20055;-67
2022/03/29 08:35:06;;;;;;;14.13;8.02;;;;;;;12.68;45.18;96889.25;5004720;28;20050;-67
2022/03/29 08:37:35;;;;;;;11.45;6.85;;;;;;;13.01;43.82;96900.53;5001801;28;20124;-68
2022/03/29 08:40:06;;;;;;;12.77;7.65;;;;;;;13.19;43.62;96902.91;5020727;28;20750;-68
2022/03/29 08:42:32;;;;;;;15.15;8.02;;;;;;;13.39;42.61;96902.75;5017545;28;20122;-67
2022/03/29 08:44:59;;;;;;;15.23;8.10;;;;;;;13.55;42.98;96891.81;4999917;28;20038;-67
2022/03/29 08:47:26;;;;;;;13.88;8.07;;;;;;;13.82;42.42;96892.44;5016496;28;20675;-68
2022/03/29 08:49:53;;;;;;;14.77;7.57;;;;;;;13.84;41.83;96891.06;5024192;28;20050;-68
2022/03/29 08:52:20;;;;;;;15.20;7.90;;;;;;;14.18;41.52;96892.94;5022697;28;20037;-68
2022/03/29 08:54:47;;;;;;;17.17;7.32;;;;;;;14.17;39.43;96885.03;5023121;28;20045;-67
2022/03/29 08:57:14;;;;;;;14.60;7.65;;;;;;;13.90;39.16;96895.34;5005259;28;20045;-67
2022/03/29 08:59:42;;;;;;;12.65;7.47;;;;;;;14.09;39.34;96891.94;5025749;28;20095;-69
2022/03/29 09:02:12;;;;;;;14.30;7.00;;;;;;;14.24;39.51;96881.97;5019178;28;20163;-69
2022/03/29 09:04:39;;;;;;;11.50;6.72;;;;;;;14.49;39.39;96890.97;5015785;28;20130;-67
2022/03/29 09:07:06;;;;;;;13.10;7.18;;;;;;;14.67;38.63;96892.94;5007616;28;20620;-67
2022/03/29 09:09:36;;;;;;;10.18;6.93;;;;;;;14.77;38.05;96883.03;5019295;28;20109;-69
2022/03/29 09:12:17;;;;;;;12.17;6.57;;;;;;;14.83;37.33;96879.16;5010866;28;20045;-70
2022/03/29 09:14:57;;;;;;;11.27;7.03;;;;;;;14.61;37.68;96888.66;5008339;28;20041;-69
2022/03/29 09:17:30;;;;;;;10.52;6.88;;;;;;;14.79;37.79;96889.03;5015765;28;20041;-69
2022/03/29 09:20:03;;;;;;;15.20;7.93;;;;;;;14.63;37.23;96881.00;5022175;28;20049;-70
2022/03/29 09:22:50;;;;;;;10.13;6.40;;;;;;;14.68;37.56;96885.59;5023168;28;20049;-68
2022/03/29 09:25:46;;;;;;;11.55;6.35;;;;;;;14.91;37.38;96880.44;5016986;28;20045;-70
2022/03/29 09:28:15;;;;;;;10.65;6.50;;;;;;;14.65;37.79;96881.53;5014398;28;20049;-69
2022/03/29 09:30:45;;;;;;;14.07;7.32;;;;;;;14.86;37.56;96877.78;5021887;28;20041;-68
2022/03/29 09:33:18;;;;;;;12.52;7.22;;;;;;;14.73;38.12;96871.06;5025438;28;20042;-68
2022/03/29 09:36:05;;;;;;;17.65;8.25;;;;;;;14.77;37.67;96866.69;5023528;28;20064;-69
2022/03/29 09:38:37;;;;;;;14.80;7.35;;;;;;;14.80;37.37;96866.13;5023957;28;20049;-67
2022/03/29 09:41:06;;;;;;;10.68;6.75;;;;;;;15.01;36.54;96869.41;5023601;28;20421;-67
2022/03/29 09:44:09;;;;;;;13.93;7.18;;;;;;;15.29;36.29;96869.53;5023511;28;20049;-67
2022/03/29 09:46:55;;;;;;;12.77;7.03;;;;;;;15.34;36.41;96863.22;5022222;28;20054;-67
2022/03/29 09:49:23;;;;;;;12.88;7.47;;;;;;;15.56;35.59;96861.78;5027086;28;20315;-68
2022/03/29 09:52:09;;;;;;;14.05;7.85;;;;;;;15.49;35.64;96862.19;5023000;28;20493;-67
2022/03/29 09:54:37;;;;;;;16.45;7.63;;;;;;;15.43;35.77;96855.97;5014166;28;20617;-67
2022/03/29 09:57:04;;;;;;;15.10;8.10;;;;;;;15.45;35.73;96853.75;5025291;28;20053;-66
2022/03/29 09:59:33;;;;;;;13.93;7.93;;;;;;;15.37;35.77;96851.69;5028488;28;20042;-67
2022/03/29 10:02:00;;;;;;;14.07;7.82;;;;;;;15.46;35.62;96852.66;5019753;28;20096;-67
2022/03/29 10:04:29;;;;;;;11.90;7.50;;;;;;;15.42;35.51;96840.72;5022940;28;20452;-67
2022/03/29 10:06:58;;;;;;;11.43;7.53;;;;;;;15.57;35.15;96839.69;5023588;28;20076;-67
2022/03/29 10:09:27;;;;;;;13.63;8.60;;;;;;;15.21;35.43;96830.13;5023498;28;20065;-66
2022/03/29 10:12:16;;;;;;;15.45;8.07;;;;;;;15.57;35.37;96826.03;5013203;28;20049;-66
2022/03/29 10:14:44;;;;;;;14.75;7.90;;;;;;;15.73;35.42;96820.28;5019937;28;20497;-66
2022/03/29 10:17:15;;;;;;;14.40;7.65;;;;;;;15.17;35.59;96820.91;5023266;28;20080;-66
2022/03/29 10:19:44;;;;;;;17.70;8.50;;;;;;;15.60;35.02;96819.16;5029386;28;20049;-66
2022/03/29 10:22:12;;;;;;;13.73;8.02;;;;;;;16.14;34.94;96810.59;5028805;28;21031;-67
2022/03/29 10:24:38;;;;;;;16.42;8.32;;;;;;;16.23;32.95;96806.06;5041644;28;20045;-66
2022/03/29 10:27:05;;;;;;;18.23;8.30;;;;;;;16.18;34.94;96797.94;5029039;28;20053;-67
2022/03/29 10:29:32;;;;;;;13.02;7.38;;;;;;;16.07;32.85;96794.59;5043726;28;20053;-66
2022/03/29 10:32:02;;;;;;;13.27;8.25;;;;;;;15.91;33.46;96793.22;5016930;28;20042;-68
2022/03/29 10:34:42;;;;;;;17.15;8.75;;;;;;;16.30;33.03;96791.19;5022144;28;20111;-66
2022/03/29 10:37:17;;;;;;;13.88;7.88;;;;;;;16.07;33.29;96791.88;5018772;28;20141;-69
2022/03/29 10:39:59;;;;;;;16.02;8.02;;;;;;;16.42;32.82;96779.72;5024679;28;20042;-71
2022/03/29 10:42:30;;;;;;;14.90;7.85;;;;;;;16.40;33.07;96779.25;5025003;28;20053;-70
2022/03/29 10:45:22;;;;;;;16.65;8.43;;;;;;;16.42;33.38;96768.81;5035384;28;20038;-69
2022/03/29 10:48:01;;;;;;;16.60;9.05;;;;;;;16.36;33.85;96762.63;5022113;28;20571;-70
2022/03/29 10:50:46;;;;;;;21.20;9.82;;;;;;;16.28;34.27;96758.69;5021396;28;20459;-70
2022/03/29 10:53:25;;;;;;;17.75;10.02;;;;;;;15.99;34.73;96755.16;5026566;28;20036;-70
2022/03/29 10:56:10;;;;;;;17.67;8.88;;;;;;;16.04;33.68;96750.72;5037252;28;20045;-70
2022/03/29 10:59:02;;;;;;;17.40;9.00;;;;;;;16.24;33.62;96741.31;5021448;28;20080;-69
2022/03/29 11:01:30;;;;;;;14.95;8.77;;;;;;;16.62;33.15;96743.78;5025003;28;20054;-68
2022/03/29 11:04:00;;;;;;;16.10;9.15;;;;;;;16.47;33.56;96750.38;5023815;28;20706;-68
2022/03/29 11:06:27;;;;;;;14.93;8.93;;;;;;;16.26;33.58;96744.56;5022980;28;20584;-68
2022/03/29 11:09:05;;;;;;;15.80;10.43;;;;;;;16.48;33.20;96748.47;5025206;28;20091;-70
2022/03/29 11:11:39;;;;;;;18.38;9.35;;;;;;;16.58;33.27;96741.97;5018549;28;20052;-71
2022/03/29 11:14:27;;;;;;;17.60;9.45;;;;;;;16.87;33.60;96732.56;5027468;28;20052;-66
2022/03/29 11:16:54;;;;;;;13.65;8.68;;;;;;;17.32;32.46;96728.28;5043624;28;20056;-66
2022/03/29 11:19:48;;;;;;;16.15;8.75;;;;;;;17.31;32.50;96723.94;5024138;28;20072;-68
2022/03/29 11:22:29;;;;;;;14.73;8.35;;;;;;;17.41;31.49;96726.41;5024642;28;20069;-71
2022/03/29 11:25:00;;;;;;;16.02;8.85;;;;;;;17.74;31.61;96717.88;5026138;28;20042;-68
2022/03/29 11:27:32;;;;;;;13.35;8.88;;;;;;;17.68;31.42;96711.72;5012080;28;20438;-70
2022/03/29 11:30:01;;;;;;;15.65;9.40;;;;;;;17.58;31.82;96706.50;5025540;28;20045;-71
2022/03/29 11:32:28;;;;;;;19.20;8.93;;;;;;;17.70;31.90;96705.13;5021334;28;20057;-65
2022/03/29 11:34:57;;;;;;;16.77;9.15;;;;;;;17.89;31.42;96708.44;5011534;28;20115;-71
2022/03/29 11:37:40;;;;;;;16.30;8.30;;;;;;;17.70;31.56;96695.00;5021805;28;20065;-70
2022/03/29 11:40:13;;;;;;;15.57;8.40;;;;;;;17.21;32.30;96700.38;5006320;28;20056;-70
2022/03/29 11:42:44;;;;;;;14.93;8.65;;;;;;;17.41;31.96;96688.09;5030066;28;20049;-69
2022/03/29 11:45:12;;;;;;;17.15;8.45;;;;;;;17.08;32.43;96686.44;5022873;28;20038;-68
2022/03/29 11:47:40;;;;;;;15.95;8.38;;;;;;;17.37;32.10;96681.63;5023480;28;20052;-66